createdAt,value
2023-03-28T00:01:36.924Z,12.10
2023-03-28T00:04:24.081Z,11.80
2023-03-28T00:07:12.001Z,13.30
2023-03-28T00:10:00.206Z,13.65
2023-03-28T00:12:47.405Z,12.13
2023-03-28T00:15:40.419Z,11.75
2023-03-28T00:18:28.263Z,12.00
2023-03-28T00:21:29.430Z,11.90
2023-03-28T00:24:19.011Z,11.00
2023-03-28T00:27:09.721Z,10.68
2023-03-28T00:29:56.881Z,10.75
2023-03-28T00:32:50.556Z,10.77
2023-03-28T00:35:37.817Z,10.38
2023-03-28T00:38:25.013Z,9.02
2023-03-28T00:41:14.369Z,9.25
2023-03-28T00:44:02.894Z,9.32
2023-03-28T00:46:51.783Z,9.52
2023-03-28T00:49:38.966Z,9.85
2023-03-28T00:52:29.910Z,9.48
2023-03-28T00:55:26.654Z,10.30
2023-03-28T00:58:23.216Z,9.38
2023-03-28T01:01:15.752Z,11.27
2023-03-28T01:04:03.322Z,11.20
2023-03-28T01:06:54.879Z,10.57
2023-03-28T01:09:43.480Z,10.38
2023-03-28T01:12:35.394Z,10.50
2023-03-28T01:15:23.662Z,11.63
2023-03-28T01:18:16.280Z,11.35
2023-03-28T01:21:07.747Z,11.02
2023-03-28T01:24:16.466Z,11.20
2023-03-28T01:27:15.546Z,10.43
2023-03-28T01:30:34.146Z,10.48
2023-03-28T01:33:50.773Z,10.27
2023-03-28T01:37:05.787Z,11.95
2023-03-28T01:40:07.944Z,12.25
2023-03-28T01:43:02.994Z,11.13
2023-03-28T01:46:12.622Z,11.00
2023-03-28T01:49:26.708Z,10.93
2023-03-28T01:52:28.132Z,10.90
2023-03-28T01:55:24.046Z,10.75
2023-03-28T01:58:39.174Z,10.63
2023-03-28T02:01:40.543Z,10.55
2023-03-28T02:04:29.689Z,10.23
2023-03-28T02:07:22.151Z,9.93
2023-03-28T02:10:11.826Z,10.40
2023-03-28T02:13:17.410Z,10.20
2023-03-28T02:16:06.632Z,10.02
2023-03-28T02:18:56.965Z,9.75
2023-03-28T02:22:13.370Z,9.82
2023-03-28T02:25:00.700Z,10.32
2023-03-28T02:27:53.110Z,9.80
2023-03-28T02:30:40.670Z,11.10
2023-03-28T02:33:43.481Z,10.98
2023-03-28T02:39:40.099Z,9.85
2023-03-28T02:42:48.379Z,9.85
2023-03-28T02:45:58.868Z,9.55
2023-03-28T02:48:48.271Z,10.07
2023-03-28T02:51:40.612Z,11.55
2023-03-28T02:54:35.924Z,10.20
2023-03-28T02:57:37.618Z,10.10
2023-03-28T03:00:25.380Z,10.68
2023-03-28T03:03:17.479Z,10.48
2023-03-28T03:06:05.399Z,10.32
2023-03-28T03:08:52.703Z,10.48
2023-03-28T03:11:39.980Z,10.40
2023-03-28T03:14:27.290Z,9.95
2023-03-28T03:17:17.098Z,12.27
2023-03-28T03:20:07.646Z,11.95
2023-03-28T03:22:55.542Z,10.75
2023-03-28T03:25:45.534Z,9.98
2023-03-28T03:28:33.959Z,10.40
2023-03-28T03:31:21.511Z,12.25
2023-03-28T03:34:08.944Z,11.23
2023-03-28T03:36:57.143Z,10.23
2023-03-28T03:39:45.340Z,11.00
2023-03-28T03:42:35.004Z,11.82
2023-03-28T03:45:22.726Z,10.32
2023-03-28T03:48:12.809Z,10.27
2023-03-28T03:51:00.005Z,10.02
2023-03-28T03:53:50.656Z,10.75
2023-03-28T03:56:41.669Z,9.68
2023-03-28T03:59:29.141Z,10.52
2023-03-28T04:02:18.791Z,11.60
2023-03-28T04:05:08.687Z,10.98
2023-03-28T04:08:00.428Z,10.73
2023-03-28T04:10:50.049Z,11.15
2023-03-28T04:13:37.578Z,11.52
2023-03-28T04:16:24.953Z,12.38
2023-03-28T04:19:13.879Z,14.68
2023-03-28T04:22:04.320Z,13.98
2023-03-28T04:24:53.559Z,13.00
2023-03-28T04:27:42.023Z,11.65
2023-03-28T04:30:30.514Z,13.18
2023-03-28T04:33:17.922Z,13.68
2023-03-28T04:36:08.264Z,14.35
2023-03-28T04:38:58.451Z,14.43
2023-03-28T04:41:46.283Z,13.10
2023-03-28T04:44:33.577Z,13.98
2023-03-28T04:47:21.242Z,11.52
2023-03-28T04:50:10.194Z,12.60
2023-03-28T04:52:57.410Z,11.80
2023-03-28T04:55:50.654Z,11.73
2023-03-28T04:58:38.478Z,12.10
2023-03-28T05:01:27.476Z,11.93
2023-03-28T05:04:18.668Z,13.20
2023-03-28T05:07:06.433Z,13.43
2023-03-28T05:10:05.095Z,11.98
2023-03-28T05:12:52.556Z,12.65
2023-03-28T05:19:40.512Z,12.23
2023-03-28T05:22:28.044Z,12.57
2023-03-28T05:25:41.089Z,12.35
2023-03-28T05:32:28.345Z,13.00
2023-03-28T05:35:16.863Z,13.75
2023-03-28T05:38:05.317Z,13.70
2023-03-28T05:40:58.135Z,14.13
2023-03-28T07:21:42.673Z,7.65
2023-03-28T07:24:04.062Z,7.50
2023-03-28T07:27:14.927Z,7.53
2023-03-28T07:32:05.313Z,7.20
2023-03-28T07:34:51.487Z,6.22
2023-03-28T07:37:40.124Z,5.90
2023-03-28T08:13:00.766Z,3.45
2023-03-28T08:19:39.373Z,3.58
2023-03-28T08:22:54.166Z,3.13
2023-03-28T08:49:57.520Z,3.30
2023-03-28T08:53:13.298Z,4.40
2023-03-28T08:56:23.483Z,2.75
2023-03-28T08:59:19.372Z,3.13
2023-03-28T09:02:36.767Z,3.03
2023-03-28T09:22:05.016Z,2.90
2023-03-28T09:25:33.009Z,2.85
2023-03-28T09:28:54.071Z,3.05
2023-03-28T09:31:46.981Z,3.83
2023-03-28T09:34:49.123Z,3.80
2023-03-28T09:37:40.920Z,3.08
2023-03-28T09:40:40.815Z,2.97
2023-03-28T09:43:42.091Z,2.58
2023-03-28T09:46:50.496Z,2.50
2023-03-28T09:49:40.694Z,2.60
2023-03-28T09:53:56.808Z,2.13
2023-03-28T09:56:54.882Z,2.45
2023-03-28T10:00:54.926Z,2.90
2023-03-28T10:03:54.482Z,2.88
2023-03-28T10:07:18.239Z,3.30
2023-03-28T10:11:00.860Z,2.88
2023-03-28T10:18:24.102Z,3.83
2023-03-28T10:21:21.709Z,2.95
2023-03-28T10:39:53.513Z,2.67
2023-03-28T10:42:54.961Z,2.75
2023-03-28T10:46:09.239Z,2.70
2023-03-28T10:49:35.497Z,2.45
2023-03-28T10:57:04.454Z,2.47
2023-03-28T11:04:19.075Z,1.67
2023-03-28T11:07:23.132Z,2.47
2023-03-28T11:10:16.707Z,2.00
2023-03-28T11:13:28.067Z,1.95
2023-03-28T11:16:49.948Z,2.00
2023-03-28T11:20:02.344Z,2.10
2023-03-28T11:23:24.845Z,2.25
2023-03-28T11:26:26.647Z,2.00
2023-03-28T11:29:33.359Z,2.22
2023-03-28T11:32:40.821Z,2.10
2023-03-28T11:35:51.397Z,2.00
2023-03-28T11:39:06.469Z,2.15
2023-03-28T11:42:03.110Z,2.05
2023-03-28T11:44:59.224Z,1.95
2023-03-28T11:48:05.813Z,2.35
2023-03-28T11:51:27.739Z,2.10
2023-03-28T11:54:25.902Z,2.72
2023-03-28T11:57:19.496Z,2.13
2023-03-28T12:03:48.423Z,2.72
2023-03-28T12:07:03.454Z,2.25
2023-03-28T12:10:16.175Z,2.40
2023-03-28T12:13:30.650Z,1.92
2023-03-28T12:16:24.280Z,2.35
2023-03-28T12:19:17.442Z,2.65
2023-03-28T12:22:21.586Z,2.40
2023-03-28T12:25:38.618Z,2.20
2023-03-28T12:28:44.253Z,2.17
2023-03-28T12:31:49.937Z,2.28
2023-03-28T12:34:47.850Z,2.20
2023-03-28T12:38:06.592Z,2.00
2023-03-28T12:41:15.950Z,2.42
2023-03-28T12:44:27.278Z,1.85
2023-03-28T12:47:24.766Z,2.17
2023-03-28T12:50:32.756Z,2.05
2023-03-28T12:53:27.861Z,1.85
2023-03-28T12:56:16.703Z,1.95
2023-03-28T12:59:37.065Z,1.80
2023-03-28T13:02:45.640Z,2.13
2023-03-28T13:06:07.062Z,1.58
2023-03-28T13:09:16.444Z,1.98
2023-03-28T13:12:23.035Z,1.92
2023-03-28T13:15:13.595Z,1.60
2023-03-28T13:18:22.049Z,1.85
2023-03-28T13:21:17.485Z,1.98
2023-03-28T13:24:28.805Z,1.88
2023-03-28T13:27:34.834Z,2.00
2023-03-28T13:30:35.261Z,2.20
2023-03-28T13:33:33.845Z,2.53
2023-03-28T13:36:26.659Z,1.98
2023-03-28T13:39:41.434Z,2.00
2023-03-28T13:42:33.657Z,2.05
2023-03-28T13:45:26.772Z,2.10
2023-03-28T13:48:15.397Z,2.00
2023-03-28T13:51:08.684Z,1.80
2023-03-28T13:53:57.162Z,1.40
2023-03-28T13:56:47.877Z,2.08
2023-03-28T13:59:40.334Z,1.88
2023-03-28T14:02:38.190Z,1.75
2023-03-28T14:05:29.909Z,2.03
2023-03-28T14:08:17.601Z,1.80
2023-03-28T14:11:07.342Z,1.77
2023-03-28T14:14:13.489Z,2.10
2023-03-28T14:17:04.101Z,2.33
2023-03-28T14:19:58.409Z,2.03
2023-03-28T14:22:59.610Z,1.85
2023-03-28T14:25:51.557Z,2.13
2023-03-28T14:28:58.810Z,1.85
2023-03-28T14:31:51.520Z,2.00
2023-03-28T14:37:30.112Z,1.80
2023-03-28T14:40:24.744Z,1.95
2023-03-28T14:43:15.091Z,1.40
2023-03-28T14:46:08.300Z,1.90
2023-03-28T14:49:03.698Z,2.05
2023-03-28T14:51:57.307Z,1.67
2023-03-28T14:54:48.423Z,1.50
2023-03-28T14:57:37.935Z,1.67
2023-03-28T15:00:35.725Z,1.63
2023-03-28T15:03:38.939Z,1.90
2023-03-28T15:06:29.692Z,1.50
2023-03-28T15:09:29.428Z,1.90
2023-03-28T15:12:21.666Z,1.73
2023-03-28T15:15:33.559Z,2.63
2023-03-28T15:18:28.585Z,2.60
2023-03-28T15:21:18.085Z,1.95
2023-03-28T15:24:08.108Z,1.50
2023-03-28T15:27:01.665Z,2.30
2023-03-28T15:29:49.165Z,2.20
2023-03-28T15:32:39.362Z,2.05
2023-03-28T15:35:39.553Z,1.90
2023-03-28T15:38:30.015Z,2.20
2023-03-28T15:41:48.353Z,2.03
2023-03-28T15:44:41.008Z,2.38
2023-03-28T15:50:36.694Z,2.25
2023-03-28T15:53:31.013Z,2.13
2023-03-28T15:56:30.422Z,2.20
2023-03-28T15:59:40.566Z,2.00
2023-03-28T16:02:27.807Z,2.03
2023-03-28T16:05:15.122Z,2.28
2023-03-28T16:08:02.736Z,2.25
2023-03-28T16:10:50.071Z,2.05
2023-03-28T16:13:43.385Z,2.10
2023-03-28T16:16:30.651Z,1.92
2023-03-28T16:19:21.460Z,1.80
2023-03-28T16:22:11.116Z,1.85
2023-03-28T16:24:58.308Z,2.15
2023-03-28T16:27:45.989Z,1.77
2023-03-28T16:30:41.663Z,1.58
2023-03-28T16:33:30.276Z,1.70
2023-03-28T16:36:20.870Z,1.95
2023-03-28T16:39:08.560Z,2.17
2023-03-28T16:41:56.311Z,2.33
2023-03-28T16:44:43.577Z,2.28
2023-03-28T16:47:31.001Z,2.17
2023-03-28T16:50:18.935Z,2.28
2023-03-28T16:53:06.722Z,2.45
2023-03-28T16:55:54.099Z,2.03
2023-03-28T16:58:51.188Z,2.30
2023-03-28T17:01:39.191Z,2.00
2023-03-28T17:04:28.688Z,2.20
2023-03-28T17:07:18.012Z,2.80
2023-03-28T17:10:17.571Z,2.95
2023-03-28T17:13:17.675Z,2.20
2023-03-28T17:16:10.200Z,2.70
2023-03-28T17:18:57.930Z,3.58
2023-03-28T17:21:45.705Z,2.42
2023-03-28T17:24:35.099Z,2.53
2023-03-28T17:27:24.985Z,4.82
2023-03-28T17:30:13.074Z,2.72
2023-03-28T17:33:02.178Z,2.35
2023-03-28T17:35:49.527Z,1.88
2023-03-28T17:38:54.394Z,2.20
2023-03-28T17:41:41.824Z,2.22
2023-03-28T17:44:29.012Z,2.25
2023-03-28T17:47:16.379Z,2.92
2023-03-28T17:50:04.013Z,3.58
2023-03-28T17:52:52.156Z,3.42
2023-03-28T17:55:39.549Z,4.57
2023-03-28T17:58:30.151Z,5.40
2023-03-28T18:01:20.603Z,5.25
2023-03-28T18:04:08.684Z,4.90
2023-03-28T18:06:56.491Z,4.93
2023-03-28T18:09:44.029Z,3.53
2023-03-28T18:12:33.615Z,3.38
2023-03-28T18:18:37.932Z,3.00
2023-03-28T18:21:25.346Z,3.08
2023-03-28T18:24:12.640Z,2.72
2023-03-28T18:27:03.619Z,3.17
2023-03-28T18:29:51.230Z,2.85
2023-03-28T18:32:38.424Z,3.50
2023-03-28T18:35:27.131Z,3.20
2023-03-28T18:38:17.286Z,3.78
2023-03-28T18:41:06.216Z,3.22
2023-03-28T18:43:53.680Z,2.92
2023-03-28T18:46:43.573Z,3.40
2023-03-28T18:49:31.573Z,3.17
2023-03-28T18:52:19.600Z,3.15
2023-03-28T18:55:07.924Z,2.95
2023-03-28T18:57:58.940Z,2.60
2023-03-28T19:00:59.503Z,3.10
2023-03-28T19:03:48.356Z,3.03
2023-03-28T19:06:39.141Z,2.70
2023-03-28T19:09:28.073Z,3.00
2023-03-28T19:12:15.752Z,2.90
2023-03-28T19:15:06.003Z,2.80
2023-03-28T19:17:54.208Z,2.38
2023-03-28T19:20:49.727Z,2.58
2023-03-28T19:23:37.659Z,2.72
2023-03-28T19:26:28.760Z,3.15
2023-03-28T19:29:16.966Z,2.80
2023-03-28T19:32:07.715Z,2.47
2023-03-28T19:34:58.134Z,2.97
2023-03-28T19:37:46.973Z,2.92
2023-03-28T19:40:34.699Z,2.53
2023-03-28T19:43:24.534Z,4.38
2023-03-28T19:46:18.048Z,3.17
2023-03-28T19:49:08.192Z,2.53
2023-03-28T19:51:57.116Z,2.58
2023-03-28T19:54:47.135Z,2.22
2023-03-28T19:57:41.877Z,2.80
2023-03-28T20:00:29.144Z,2.60
2023-03-28T20:03:17.858Z,3.03
2023-03-28T20:06:08.767Z,2.95
2023-03-28T20:08:56.738Z,2.47
2023-03-28T20:11:44.054Z,2.20
2023-03-28T20:14:31.874Z,2.70
2023-03-28T20:17:21.257Z,2.65
2023-03-28T20:20:11.390Z,2.25
2023-03-28T20:23:00.578Z,2.40
2023-03-28T20:25:47.900Z,2.45
2023-03-28T20:28:35.247Z,2.63
2023-03-28T20:31:23.376Z,2.65
2023-03-28T20:34:12.243Z,2.70
2023-03-28T20:37:00.131Z,3.08
2023-03-28T20:39:49.361Z,2.50
2023-03-28T20:42:40.864Z,4.00
2023-03-28T20:45:28.825Z,3.45
2023-03-28T20:48:19.288Z,1.25
2023-03-28T20:51:17.078Z,3.03
2023-03-28T20:54:04.935Z,2.20
2023-03-28T20:56:52.151Z,2.60
2023-03-28T20:59:41.761Z,3.05
2023-03-28T21:02:33.443Z,2.90
2023-03-28T21:05:25.616Z,3.30
2023-03-28T21:08:15.537Z,2.85
2023-03-28T21:11:03.894Z,2.33
2023-03-28T21:13:51.384Z,2.88
2023-03-28T21:16:40.977Z,2.85
2023-03-28T21:19:28.382Z,3.47
2023-03-28T21:22:18.125Z,3.00
2023-03-28T21:25:07.014Z,2.70
2023-03-28T21:27:54.355Z,2.72
2023-03-28T21:30:41.736Z,2.25
2023-03-28T21:33:30.782Z,2.58
2023-03-28T21:36:19.935Z,2.20
2023-03-28T21:39:09.673Z,2.42
2023-03-28T21:41:57.835Z,2.33
2023-03-28T21:44:45.042Z,2.85
2023-03-28T21:47:32.366Z,2.67
2023-03-28T21:50:19.887Z,2.33
2023-03-28T21:53:09.257Z,2.53
2023-03-28T21:55:59.614Z,2.10
2023-03-28T21:58:46.881Z,2.80
2023-03-28T22:01:34.971Z,3.00
2023-03-28T22:04:22.265Z,2.60
2023-03-28T22:07:09.980Z,2.90
2023-03-28T22:10:01.357Z,2.75
2023-03-28T22:12:52.926Z,3.30
2023-03-28T22:15:42.661Z,3.47
2023-03-28T22:18:30.859Z,3.35
2023-03-28T22:21:21.179Z,3.35
2023-03-28T22:24:13.580Z,3.42
2023-03-28T22:27:06.019Z,3.53
2023-03-28T22:29:54.156Z,3.42
2023-03-28T22:32:43.478Z,4.28
2023-03-28T22:35:32.328Z,3.40
2023-03-28T22:38:19.864Z,3.40
2023-03-28T22:41:07.766Z,3.08
2023-03-28T22:43:55.147Z,3.50
2023-03-28T22:46:42.633Z,3.85
2023-03-28T22:49:30.799Z,4.25
2023-03-28T22:52:19.498Z,3.75
2023-03-28T22:55:17.941Z,3.60
2023-03-28T22:58:06.581Z,3.60
2023-03-28T23:00:56.082Z,3.60
2023-03-28T23:03:43.912Z,3.50
2023-03-28T23:06:31.706Z,3.65
2023-03-28T23:09:26.527Z,3.97
2023-03-28T23:12:15.726Z,3.67
2023-03-28T23:15:05.437Z,4.10
2023-03-28T23:17:52.787Z,3.78
2023-03-28T23:20:41.406Z,3.63
2023-03-28T23:23:28.632Z,3.92
2023-03-28T23:26:18.905Z,3.97
2023-03-28T23:29:12.884Z,3.63
2023-03-28T23:32:00.356Z,3.70
2023-03-28T23:34:47.608Z,3.65
2023-03-28T23:37:38.575Z,4.75
2023-03-28T23:40:28.335Z,4.65
2023-03-28T23:43:15.905Z,5.00
2023-03-28T23:46:04.417Z,5.28
2023-03-28T23:48:53.743Z,5.30
2023-03-28T23:51:48.754Z,4.60
2023-03-28T23:54:36.151Z,4.65
2023-03-28T23:57:25.328Z,5.03
